Time;durP1;ratioP1;P1;durP2;ratioP2;P2;SDS_P1;SDS_P2;PMS_P1;PMS_P2;Temp;Humidity;BMP_temperature;BMP_pressure;BME280_temperature;BME280_humidity;BME280_pressure;Samples;Min_cycle;Max_cycle;Signal;HPM_P1;HPM_P2
2021/04/24 00:01:30;;;;;;;2.90;2.40;;;12.00;77.30;;;11.84;52.70;101566.84;4090046;29;20035;-75
2021/04/24 00:03:31;;;;;;;4.80;2.33;;;11.90;76.80;;;11.84;51.91;101570.31;4090088;29;20024;-75
2021/04/24 00:05:41;;;;;;;4.22;2.10;;;11.90;76.00;;;11.87;51.78;101567.41;4090104;29;20036;-75
2021/04/24 00:07:42;;;;;;;7.00;2.38;;;11.90;76.50;;;11.86;51.66;101565.72;4104045;29;20074;-75
2021/04/24 00:09:43;;;;;;;6.93;2.30;;;11.90;75.90;;;11.74;53.21;101566.88;4089497;29;20028;-75
2021/04/24 00:11:44;;;;;;;4.82;2.25;;;11.80;77.60;;;11.69;52.82;101553.22;4089700;29;20028;-75
2021/04/24 00:13:45;;;;;;;5.50;2.47;;;11.70;78.10;;;11.62;52.59;101562.69;4089721;29;20032;-75
2021/04/24 00:15:47;;;;;;;3.15;2.22;;;11.70;77.00;;;11.62;53.89;101560.03;4089786;29;20036;-75
2021/04/24 00:17:48;;;;;;;5.88;2.83;;;11.70;78.60;;;11.56;54.79;101563.25;4104324;29;20031;-75
2021/04/24 00:19:49;;;;;;;6.80;2.70;;;11.60;79.80;;;11.57;53.51;101570.22;4104530;29;20032;-74
2021/04/24 00:21:51;;;;;;;5.22;2.65;;;11.60;78.60;;;11.45;54.20;101552.84;4089947;29;20082;-75
2021/04/24 00:23:52;;;;;;;4.10;2.40;;;11.60;79.80;;;11.44;55.15;101548.56;4104173;29;20063;-75
2021/04/24 00:25:52;;;;;;;6.10;3.22;;;11.50;80.70;;;11.33;54.99;101541.63;4088265;29;20036;-75
2021/04/24 00:27:53;;;;;;;6.28;2.47;;;11.50;80.00;;;11.53;54.30;101552.97;4089663;29;20035;-75
2021/04/24 00:29:54;;;;;;;4.28;2.47;;;11.50;79.20;;;11.44;55.69;101559.13;4089799;29;20035;-75
2021/04/24 00:31:55;;;;;;;5.40;2.80;;;11.50;80.90;;;11.25;56.65;101561.78;4088288;29;20444;-75
2021/04/24 00:33:56;;;;;;;7.15;2.50;;;11.30;81.50;;;11.21;56.23;101553.31;4088404;29;20452;-75
2021/04/24 00:35:58;;;;;;;6.82;2.58;;;11.30;81.40;;;11.23;58.02;101551.34;4089578;29;20031;-75
2021/04/24 00:37:59;;;;;;;4.20;2.50;;;11.30;83.70;;;11.14;57.22;101561.94;4103855;29;20031;-75
2021/04/24 00:40:00;;;;;;;5.20;2.38;;;11.30;83.00;;;11.17;55.65;101556.38;4089458;29;20031;-75
2021/04/24 00:42:00;;;;;;;7.82;2.47;;;11.20;81.10;;;11.14;56.00;101562.75;4088303;29;20526;-75
2021/04/24 00:44:02;;;;;;;4.63;3.17;;;11.20;82.00;;;11.05;56.18;101548.59;4085179;29;20055;-75
2021/04/24 00:46:11;;;;;;;5.43;3.15;;;11.10;82.00;;;11.08;56.05;101547.47;4073585;29;20087;-75
2021/04/24 00:48:14;;;;;;;5.03;2.63;;;11.10;81.40;;;10.87;56.84;101533.59;4073600;29;20492;-75
2021/04/24 00:50:27;;;;;;;6.47;3.17;;;11.10;82.30;;;10.90;56.06;101526.22;4077114;29;20031;-75
2021/04/24 00:52:28;;;;;;;4.28;2.30;;;11.00;82.10;;;10.99;56.02;101541.22;4080119;29;20051;-75
2021/04/24 00:54:29;;;;;;;7.50;2.83;;;11.00;81.90;;;11.15;54.11;101538.03;4089045;29;20054;-75
2021/04/24 00:56:31;;;;;;;4.82;2.83;;;11.10;80.10;;;11.24;52.74;101534.53;4089157;29;20027;-75
2021/04/24 00:58:33;;;;;;;7.32;2.70;;;11.20;77.90;;;11.23;55.18;101534.69;4103939;29;20023;-75
2021/04/24 01:00:34;;;;;;;4.78;2.65;;;11.20;81.30;;;11.23;53.70;101538.16;4089108;29;20090;-75
2021/04/24 01:02:37;;;;;;;5.43;3.15;;;11.20;79.30;;;11.10;54.05;101533.19;4089086;29;20532;-75
2021/04/24 01:04:38;;;;;;;4.72;2.80;;;11.20;79.50;;;11.04;54.26;101520.53;4089041;29;20040;-75
2021/04/24 01:06:39;;;;;;;6.68;3.35;;;11.10;80.10;;;11.18;53.47;101529.81;4088988;29;20087;-75
2021/04/24 01:08:41;;;;;;;6.25;3.03;;;11.10;78.70;;;11.07;54.20;101522.91;4088806;29;20051;-75
2021/04/24 01:10:44;;;;;;;6.03;3.30;;;11.10;79.50;;;11.32;53.40;101532.00;4103453;29;20035;-75
2021/04/24 01:12:47;;;;;;;8.55;3.05;;;11.20;79.00;;;11.28;53.48;101527.19;4088935;29;20159;-75
2021/04/24 01:14:47;;;;;;;6.78;2.85;;;11.20;79.10;;;11.19;54.68;101517.44;4089066;29;20047;-75
2021/04/24 01:16:48;;;;;;;5.63;2.90;;;11.20;80.50;;;11.25;52.93;101523.00;4088966;29;20032;-75
2021/04/24 01:18:50;;;;;;;8.60;3.35;;;11.20;78.50;;;11.24;52.05;101526.63;4088787;29;20039;-75
2021/04/24 01:20:54;;;;;;;7.68;3.40;;;11.20;77.10;;;11.27;51.82;101499.09;4103419;29;20035;-75
2021/04/24 01:22:56;;;;;;;6.63;3.63;;;11.30;77.50;;;11.32;51.50;101521.44;4088621;29;20107;-75
2021/04/24 01:24:58;;;;;;;5.88;3.03;;;11.40;76.70;;;11.31;53.31;101521.59;4103382;29;20163;-75
2021/04/24 01:26:59;;;;;;;9.90;3.60;;;11.30;78.30;;;11.22;52.78;101511.88;4088520;29;20032;-75
2021/04/24 01:29:00;;;;;;;4.50;2.90;;;11.30;78.60;;;11.18;55.17;101513.97;4088353;29;20028;-75
2021/04/24 01:31:01;;;;;;;8.13;3.00;;;11.20;80.90;;;11.23;53.01;101503.81;4088667;29;20038;-75
2021/04/24 01:33:07;;;;;;;6.30;3.33;;;11.30;78.00;;;11.25;52.07;101516.88;4088616;29;20506;-75
2021/04/24 01:35:13;;;;;;;5.03;2.97;;;11.30;77.40;;;11.18;53.76;101507.84;4088701;29;20031;-75
2021/04/24 01:37:14;;;;;;;5.60;3.65;;;11.30;78.80;;;11.09;54.51;101499.81;4103112;29;20032;-75
2021/04/24 01:39:15;;;;;;;6.22;3.58;;;11.20;80.00;;;11.28;52.54;101501.59;4088343;29;20143;-75
2021/04/24 01:41:16;;;;;;;5.30;3.90;;;11.30;77.20;;;11.29;53.33;101499.78;4088547;29;20032;-75
2021/04/24 01:43:17;;;;;;;6.28;3.40;;;11.30;78.60;;;11.23;52.40;101503.81;4088214;29;20043;-75
2021/04/24 01:45:22;;;;;;;5.57;3.10;;;11.30;77.50;;;11.28;52.41;101500.75;4074089;29;20028;-75
2021/04/24 01:47:23;;;;;;;6.40;4.13;;;11.30;77.30;;;11.26;52.86;101492.16;4072477;29;20028;-75
2021/04/24 01:49:24;;;;;;;6.30;3.95;;;11.30;78.70;;;11.23;52.07;101489.81;4072832;29;20079;-75
2021/04/24 01:51:25;;;;;;;5.10;3.22;;;11.30;77.10;;;11.24;53.39;101494.94;4076274;29;20060;-75
2021/04/24 01:53:26;;;;;;;4.82;3.28;;;11.30;78.60;;;11.07;53.16;101488.56;4086346;29;20024;-75
2021/04/24 01:55:31;;;;;;;7.00;4.20;;;11.30;77.80;;;11.11;52.46;101483.81;4088554;29;20047;-75
2021/04/24 01:57:31;;;;;;;8.85;4.07;;;11.20;77.80;;;10.97;55.04;101479.81;4088537;29;20030;-75
2021/04/24 01:59:35;;;;;;;5.88;3.40;;;11.20;79.80;;;10.90;55.36;101473.41;4102927;29;20031;-75
2021/04/24 02:01:36;;;;;;;6.40;3.88;;;11.10;80.60;;;11.08;53.66;101484.94;4102605;29;20031;-75
2021/04/24 02:03:38;;;;;;;7.28;3.60;;;11.10;79.60;;;10.96;53.20;101464.94;4088346;29;20035;-75
2021/04/24 02:05:41;;;;;;;6.60;3.47;;;11.10;78.50;;;10.85;53.94;101465.09;4102893;29;20030;-75
2021/04/24 02:07:51;;;;;;;7.53;3.88;;;11.20;79.30;;;11.00;52.60;101466.34;4102800;29;20027;-75
2021/04/24 02:09:52;;;;;;;4.97;3.80;;;11.20;77.70;;;11.02;52.58;101477.56;4101816;29;20446;-75
2021/04/24 02:12:09;;;;;;;8.75;3.78;;;11.20;77.60;;;10.90;53.33;101476.06;4088245;29;20027;-75
2021/04/24 02:14:11;;;;;;;7.10;3.72;;;11.10;78.70;;;10.96;53.32;101480.78;4088066;29;20027;-75
2021/04/24 02:16:13;;;;;;;6.57;3.90;;;11.10;78.20;;;10.88;52.15;101466.63;4088024;29;20094;-75
2021/04/24 02:18:15;;;;;;;7.25;4.72;;;11.10;77.40;;;10.89;53.43;101473.56;4088123;29;20063;-75
2021/04/24 02:20:17;;;;;;;7.00;3.83;;;11.10;78.80;;;10.98;52.16;101470.09;4088349;29;20032;-75
2021/04/24 02:22:21;;;;;;;6.30;3.58;;;11.20;77.30;;;10.93;52.76;101474.97;4088182;29;20038;-75
2021/04/24 02:24:21;;;;;;;8.97;3.43;;;11.10;78.10;;;10.91;54.47;101461.91;4087755;29;20028;-75
2021/04/24 02:26:22;;;;;;;8.00;3.38;;;11.10;79.70;;;10.90;54.52;101477.91;4086844;29;20659;-75
2021/04/24 02:28:23;;;;;;;5.95;3.80;;;11.00;80.20;;;10.80;55.09;101467.34;4088165;29;20023;-75
2021/04/24 02:30:25;;;;;;;7.00;3.80;;;11.00;81.10;;;10.93;53.59;101470.50;4088357;29;20031;-75
2021/04/24 02:32:31;;;;;;;9.63;4.85;;;11.00;79.20;;;10.91;52.97;101472.47;4088165;29;20031;-75
2021/04/24 02:34:33;;;;;;;8.40;4.32;;;11.00;78.50;;;10.76;53.42;101455.38;4102709;29;20136;-75
2021/04/24 02:36:34;;;;;;;6.13;3.53;;;11.10;78.10;;;10.84;52.85;101454.69;4102758;29;20030;-75
2021/04/24 02:38:35;;;;;;;6.85;4.15;;;11.10;77.90;;;10.87;53.01;101460.50;4087817;29;20036;-75
2021/04/24 02:40:36;;;;;;;8.68;4.18;;;11.10;78.00;;;10.83;52.91;101469.69;4102525;29;20062;-75
2021/04/24 02:42:37;;;;;;;6.05;3.88;;;11.00;78.00;;;10.84;53.11;101459.97;4088055;29;20039;-75
2021/04/24 02:44:38;;;;;;;8.35;4.35;;;11.00;78.90;;;10.94;52.52;101455.50;4079077;29;20055;-75
2021/04/24 02:46:39;;;;;;;7.50;3.80;;;11.00;78.20;;;10.90;53.18;101465.50;4072164;29;20032;-75
2021/04/24 02:48:40;;;;;;;5.78;3.58;;;11.00;78.60;;;10.87;53.23;101465.78;4072296;29;20024;-75
2021/04/24 02:50:42;;;;;;;7.10;4.18;;;11.00;78.70;;;10.90;53.31;101465.50;4075976;29;20031;-75
2021/04/24 02:52:44;;;;;;;9.23;4.25;;;11.10;78.70;;;10.96;52.77;101470.22;4080770;29;20091;-75
2021/04/24 02:54:45;;;;;;;9.02;4.57;;;11.10;78.20;;;10.85;53.43;101467.75;4087948;29;20031;-75
2021/04/24 02:56:46;;;;;;;7.03;3.83;;;11.00;78.60;;;10.80;52.91;101458.56;4087770;29;20055;-75
2021/04/24 02:58:46;;;;;;;6.47;4.18;;;11.00;78.00;;;10.72;54.88;101466.38;4087861;29;20042;-75
2021/04/24 03:00:47;;;;;;;7.25;3.85;;;11.00;80.50;;;10.68;54.26;101460.53;4087927;29;20094;-75
2021/04/24 03:02:59;;;;;;;8.32;4.30;;;10.90;79.50;;;10.79;53.01;101463.00;4087863;29;20046;-75
2021/04/24 03:05:01;;;;;;;7.63;4.28;;;10.90;78.70;;;10.62;54.00;101434.69;4088324;29;20043;-75
2021/04/24 03:07:02;;;;;;;9.57;4.00;;;10.80;80.40;;;10.72;55.14;101459.25;4090791;29;20068;-75
2021/04/24 03:09:04;;;;;;;9.20;5.07;;;10.80;81.70;;;10.67;54.49;101453.56;4090688;29;20031;-75
2021/04/24 03:11:05;;;;;;;8.55;5.15;;;10.80;80.00;;;10.70;53.63;101453.28;4090821;29;20023;-75
2021/04/24 03:13:09;;;;;;;10.00;4.85;;;10.80;79.20;;;10.78;53.23;101466.63;4090654;29;20039;-75
2021/04/24 03:15:11;;;;;;;10.45;4.60;;;10.80;78.80;;;10.78;53.07;101456.06;4090753;29;20032;-75
2021/04/24 03:17:12;;;;;;;6.03;3.95;;;10.90;78.70;;;10.86;53.32;101458.84;4090846;29;20396;-75
2021/04/24 03:19:13;;;;;;;9.57;4.50;;;10.90;78.80;;;10.80;53.16;101463.84;4105408;29;20039;-75
2021/04/24 03:21:13;;;;;;;8.07;4.53;;;10.90;79.10;;;10.69;53.38;101445.53;4073687;29;20119;-75
2021/04/24 03:23:14;;;;;;;8.43;4.72;;;10.90;78.80;;;10.74;52.76;101459.13;4105197;29;20032;-75
2021/04/24 03:25:16;;;;;;;10.13;5.88;;;10.90;78.60;;;10.69;53.70;101459.56;4105415;29;20031;-75
2021/04/24 03:27:17;;;;;;;7.25;3.90;;;10.80;79.40;;;10.85;51.83;101449.25;4105255;29;20038;-74
2021/04/24 03:29:18;;;;;;;8.43;4.57;;;10.80;78.00;;;10.91;52.21;101461.06;4090581;29;20023;-75
2021/04/24 03:31:20;;;;;;;6.47;3.80;;;10.90;78.10;;;10.74;52.90;101470.53;4090899;29;20118;-75
2021/04/24 03:33:20;;;;;;;7.18;4.45;;;10.90;78.70;;;10.78;52.89;101460.53;4090502;29;20040;-75
2021/04/24 03:35:21;;;;;;;11.38;4.68;;;10.80;78.30;;;10.73;54.33;101460.09;4090408;29;20031;-75
2021/04/24 03:37:22;;;;;;;6.57;3.90;;;10.80;80.00;;;10.60;53.39;101463.03;4090616;29;20067;-74
2021/04/24 03:39:24;;;;;;;7.60;4.78;;;10.70;78.80;;;10.54;54.38;101466.22;4090286;29;20040;-75
2021/04/24 03:41:25;;;;;;;9.10;5.47;;;10.70;79.90;;;10.60;52.97;101460.41;4090532;29;20074;-75
2021/04/24 03:43:26;;;;;;;7.40;4.05;;;10.70;78.60;;;10.57;53.25;101456.22;4104954;29;20051;-75
2021/04/24 03:45:27;;;;;;;9.88;4.85;;;10.70;78.90;;;10.42;53.87;101460.22;4074963;29;20036;-75
2021/04/24 03:47:28;;;;;;;7.68;4.00;;;10.70;79.70;;;10.53;55.71;101472.47;4074593;29;20035;-75
2021/04/24 03:49:29;;;;;;;7.93;4.35;;;10.60;81.70;;;10.57;53.95;101469.41;4074720;29;20156;-75
2021/04/24 03:51:30;;;;;;;8.32;3.97;;;10.60;79.70;;;10.46;54.09;101456.34;4093007;29;20034;-75
2021/04/24 03:53:31;;;;;;;7.47;4.10;;;10.60;79.90;;;10.43;54.42;101461.91;4088861;29;20542;-75
2021/04/24 03:55:32;;;;;;;8.45;5.28;;;10.50;79.80;;;10.56;53.49;101459.00;4104960;29;20035;-75
2021/04/24 03:57:33;;;;;;;8.50;4.50;;;10.60;79.10;;;10.32;55.52;101456.75;4090266;29;20038;-75
2021/04/24 03:59:34;;;;;;;7.65;4.30;;;10.60;80.90;;;10.46;53.98;101451.06;4090425;29;20122;-75
2021/04/24 04:01:35;;;;;;;6.60;4.40;;;10.50;80.00;;;10.28;54.13;101452.72;4089708;29;20115;-75
2021/04/24 04:03:36;;;;;;;6.40;4.65;;;10.40;80.30;;;10.30;54.85;101455.25;4090137;29;20502;-75
2021/04/24 04:05:40;;;;;;;7.22;4.28;;;10.40;80.50;;;10.25;57.19;101457.44;4104687;29;20031;-75
2021/04/24 04:07:43;;;;;;;7.38;4.35;;;10.30;82.80;;;10.27;55.30;101440.53;4089937;29;20028;-75
2021/04/24 04:09:44;;;;;;;8.48;4.28;;;10.40;81.10;;;10.38;54.41;101456.22;4104505;29;20454;-75
2021/04/24 04:11:45;;;;;;;6.80;4.20;;;10.40;80.90;;;10.25;54.94;101462.69;4090005;29;20034;-75
2021/04/24 04:13:46;;;;;;;5.72;4.30;;;10.30;81.30;;;10.22;55.16;101433.97;4089878;29;20024;-75
2021/04/24 04:15:47;;;;;;;7.05;4.35;;;10.30;81.60;;;10.33;56.20;101447.88;4089920;29;20031;-75
2021/04/24 04:18:10;;;;;;;8.68;5.28;;;10.30;82.50;;;10.37;53.98;101436.06;4089713;29;20031;-75
2021/04/24 04:20:11;;;;;;;9.65;4.80;;;10.40;80.20;;;10.28;56.51;101441.34;4104679;29;20027;-75
2021/04/24 04:22:12;;;;;;;9.02;4.18;;;10.40;83.00;;;10.27;54.61;101434.41;4089669;29;20051;-75
2021/04/24 04:24:13;;;;;;;8.07;4.82;;;10.40;80.90;;;10.29;54.10;101443.84;4089471;29;20031;-75
2021/04/24 04:26:16;;;;;;;6.93;4.43;;;10.40;79.80;;;10.29;57.62;101448.28;4088563;29;20594;-75
2021/04/24 04:28:18;;;;;;;8.15;3.97;;;10.40;84.00;;;10.21;55.85;101445.50;4089824;29;20510;-75
2021/04/24 04:30:20;;;;;;;9.52;4.70;;;10.30;82.20;;;9.98;56.56;101432.50;4089763;29;20103;-75
2021/04/24 04:32:22;;;;;;;5.20;4.57;;;10.30;82.80;;;10.15;56.69;101435.50;4104256;29;20041;-75
2021/04/24 04:34:22;;;;;;;9.20;4.80;;;10.20;83.50;;;10.26;54.17;101440.66;4089742;29;20476;-75
2021/04/24 04:36:23;;;;;;;6.47;4.53;;;10.30;80.50;;;10.24;55.00;101432.88;4089802;29;20039;-75
2021/04/24 04:38:24;;;;;;;6.90;4.43;;;10.40;81.10;;;10.22;54.95;101434.81;4104060;29;20383;-75
2021/04/24 04:40:25;;;;;;;6.43;4.85;;;10.30;81.80;;;9.98;54.30;101414.06;4089411;29;20040;-75
2021/04/24 04:42:27;;;;;;;8.55;4.43;;;10.40;80.10;;;10.07;55.33;101425.59;4089517;29;20034;-75
2021/04/24 04:44:28;;;;;;;9.32;4.45;;;10.30;81.20;;;10.09;54.18;101426.31;4088123;29;20055;-75
2021/04/24 04:46:29;;;;;;;10.20;5.05;;;10.30;80.10;;;10.07;57.67;101448.47;4077623;29;20084;-75
2021/04/24 04:48:29;;;;;;;6.40;3.97;;;10.30;83.30;;;9.95;55.85;101448.59;4073309;29;20032;-75
2021/04/24 04:50:34;;;;;;;8.32;4.80;;;10.20;81.50;;;9.85;56.84;101431.09;4077065;29;20028;-75
2021/04/24 04:52:35;;;;;;;;;;;10.20;83.10;;;9.89;56.23;101435.13;4081863;29;20110;-75
2021/04/24 04:54:36;;;;;;;7.38;4.47;;;10.20;82.90;;;9.97;56.50;101444.00;4087877;29;19919;-75
2021/04/24 04:56:37;;;;;;;7.22;4.93;;;10.20;81.80;;;10.08;54.26;101447.50;4089131;29;20415;-75
2021/04/24 04:58:38;;;;;;;8.93;5.47;;;10.20;80.40;;;10.01;55.98;101436.69;4089247;29;20045;-75
2021/04/24 05:00:39;;;;;;;8.20;4.45;;;10.30;82.00;;;10.16;55.80;101455.59;4089119;29;20028;-74
2021/04/24 05:02:40;;;;;;;6.10;4.97;;;10.30;81.50;;;10.11;56.38;101441.97;4089108;29;20032;-75
2021/04/24 05:04:41;;;;;;;8.20;5.15;;;10.30;82.90;;;10.12;56.65;101443.66;4103606;29;20504;-75
2021/04/24 05:06:43;;;;;;;8.75;4.63;;;10.30;83.20;;;10.31;56.49;101462.16;4087867;29;20032;-75
2021/04/24 05:08:44;;;;;;;8.55;5.20;;;10.40;82.80;;;10.23;56.02;101459.38;4089028;29;20024;-75
2021/04/24 05:10:45;;;;;;;7.47;4.75;;;10.50;82.30;;;10.13;57.49;101464.63;4088888;29;20027;-75
2021/04/24 05:12:46;;;;;;;6.88;5.47;;;10.40;83.40;;;10.12;55.79;101457.66;4089024;29;20558;-75
2021/04/24 05:14:47;;;;;;;8.05;4.50;;;10.40;81.50;;;10.21;55.05;101440.22;4080424;29;20038;-75
2021/04/24 05:16:48;;;;;;;7.20;4.95;;;10.50;81.10;;;10.26;54.44;101453.81;4080561;29;20024;-75
2021/04/24 05:18:49;;;;;;;8.88;4.53;;;10.60;80.40;;;10.25;55.56;101457.44;4088851;29;20055;-75
2021/04/24 05:20:51;;;;;;;6.13;4.43;;;10.60;81.20;;;10.32;56.22;101458.56;4088752;29;20506;-75
2021/04/24 05:22:52;;;;;;;6.97;4.32;;;10.60;82.10;;;10.31;56.89;101470.06;4069846;29;20035;-75
2021/04/24 05:24:52;;;;;;;6.68;4.32;;;10.60;83.30;;;10.27;57.51;101468.69;4081951;29;20040;-75
2021/04/24 05:26:53;;;;;;;14.48;5.85;;;10.70;83.00;;;10.36;55.86;101465.25;4083186;29;20032;-75
2021/04/24 05:28:54;;;;;;;6.57;4.93;;;10.70;82.00;;;10.25;56.70;101446.88;4088237;29;20039;-75
2021/04/24 05:30:55;;;;;;;8.48;5.00;;;10.80;82.60;;;10.38;54.78;101468.56;4088795;29;20059;-75
2021/04/24 05:32:58;;;;;;;8.55;4.40;;;10.80;80.20;;;10.44;54.50;101473.28;4088709;29;20039;-75
2021/04/24 05:34:59;;;;;;;9.40;5.28;;;10.80;80.60;;;10.44;53.75;101457.47;4088681;29;20020;-75
2021/04/24 05:37:00;;;;;;;6.40;4.55;;;10.90;79.40;;;10.40;54.15;101448.16;4088432;29;20047;-75
2021/04/24 05:39:03;;;;;;;6.28;4.90;;;10.90;80.00;;;10.57;56.00;101474.69;4088468;29;20040;-75
2021/04/24 05:41:06;;;;;;;6.03;4.50;;;11.00;81.50;;;10.57;53.38;101471.22;4088752;29;20069;-75
2021/04/24 05:43:07;;;;;;;6.15;4.38;;;11.00;79.40;;;10.54;54.43;101460.94;4102730;29;20032;-75
2021/04/24 05:45:13;;;;;;;7.25;4.50;;;11.20;79.80;;;10.73;53.82;101479.41;4075771;29;20040;-75
2021/04/24 05:47:15;;;;;;;6.35;4.65;;;11.20;80.10;;;10.74;54.19;101485.53;4071404;29;20118;-75
2021/04/24 05:49:16;;;;;;;8.48;4.97;;;11.30;79.10;;;10.80;53.64;101479.69;4072670;29;20111;-75
2021/04/24 05:51:19;;;;;;;7.32;4.85;;;11.30;79.50;;;10.91;55.10;101487.47;4090749;29;20071;-77
2021/04/24 05:53:20;;;;;;;7.18;4.57;;;11.40;80.80;;;10.93;53.89;101485.53;4100175;29;20027;-78
2021/04/24 05:55:21;;;;;;;6.45;4.70;;;11.40;79.30;;;10.96;54.96;101482.63;4088395;29;20082;-77
2021/04/24 05:57:22;;;;;;;13.45;5.55;;;11.50;80.40;;;10.80;53.72;101475.25;4075963;29;20466;-77
2021/04/24 05:59:23;;;;;;;10.38;4.75;;;11.60;78.50;;;10.71;52.75;101489.28;4084272;29;20038;-77
2021/04/24 06:01:23;;;;;;;5.55;4.28;;;11.60;76.80;;;10.89;53.32;101492.06;4070100;29;20058;-76
2021/04/24 06:03:24;;;;;;;8.02;4.70;;;11.60;78.20;;;11.01;53.02;101493.56;4087833;29;20490;-76
2021/04/24 06:05:25;;;;;;;5.68;4.30;;;11.70;77.80;;;11.04;53.83;101488.00;4085179;29;20071;-78
2021/04/24 06:07:26;;;;;;;9.13;5.43;;;11.70;78.40;;;11.11;53.86;101499.66;4087370;29;20032;-78
2021/04/24 06:09:27;;;;;;;7.13;4.75;;;11.80;79.40;;;11.25;54.23;101503.69;4087370;29;20036;-77
2021/04/24 06:11:28;;;;;;;7.35;4.47;;;11.80;79.70;;;11.25;55.38;101491.31;4088069;29;20091;-78
2021/04/24 06:13:29;;;;;;;7.82;4.80;;;11.90;81.80;;;11.35;54.33;101507.16;4088210;29;20027;-77
2021/04/24 06:15:30;;;;;;;7.25;4.53;;;11.90;79.90;;;11.34;53.12;101500.19;4088211;29;20030;-77
2021/04/24 06:17:31;;;;;;;11.48;5.03;;;11.90;78.70;;;11.36;52.81;101508.81;4102581;29;20031;-77
2021/04/24 06:19:31;;;;;;;7.97;4.22;;;11.90;78.40;;;11.33;53.11;101507.28;4087845;29;20028;-76
2021/04/24 06:21:32;;;;;;;7.75;4.10;;;11.90;78.40;;;11.23;52.47;101503.00;4088066;29;20063;-76
2021/04/24 06:23:33;;;;;;;6.63;4.30;;;11.90;77.70;;;11.21;52.97;101504.94;4102619;29;20027;-77
2021/04/24 06:25:35;;;;;;;7.28;4.57;;;11.90;78.10;;;11.33;53.26;101503.81;4078934;29;20063;-75
2021/04/24 06:27:36;;;;;;;9.98;4.28;;;11.90;78.50;;;11.32;56.42;101488.94;4086953;29;20111;-76
2021/04/24 06:29:37;;;;;;;7.80;4.38;;;11.90;82.50;;;11.37;53.85;101490.19;4092664;29;20031;-76
2021/04/24 06:31:39;;;;;;;8.75;5.15;;;11.90;80.10;;;11.38;55.61;101481.25;4081809;29;20068;-76
2021/04/24 06:33:40;;;;;;;5.45;3.72;;;11.90;81.60;;;11.33;54.45;101478.22;4082315;29;20063;-76
2021/04/24 06:35:41;;;;;;;7.05;5.00;;;11.90;80.20;;;11.34;53.47;101485.19;4083679;29;20031;-76
2021/04/24 06:37:43;;;;;;;6.70;4.22;;;11.90;79.00;;;11.29;54.50;101482.13;4085819;29;20529;-75
2021/04/24 06:39:44;;;;;;;5.63;4.45;;;11.90;80.30;;;11.37;53.87;101478.78;4087803;29;20030;-75
2021/04/24 06:41:46;;;;;;;9.52;4.20;;;11.90;79.80;;;11.50;54.41;101479.28;4090811;29;20039;-75
2021/04/24 06:43:46;;;;;;;6.82;4.55;;;12.10;80.70;;;11.54;55.61;101497.34;4082085;29;20481;-75
2021/04/24 06:45:47;;;;;;;7.78;4.47;;;12.10;81.40;;;11.55;53.85;101491.09;4090732;29;20032;-75
2021/04/24 06:47:51;;;;;;;8.25;4.50;;;12.20;79.50;;;11.60;55.04;101480.09;4085489;29;20035;-74
2021/04/24 06:49:52;;;;;;;5.53;3.78;;;12.20;80.80;;;11.64;55.20;101476.19;4088074;29;20032;-77
2021/04/24 06:51:53;;;;;;;9.88;4.40;;;12.20;81.20;;;11.75;56.94;101494.53;4074627;29;20085;-75
2021/04/24 06:53:54;;;;;;;7.35;3.90;;;12.30;83.20;;;11.76;57.46;101490.91;4074263;29;20028;-74
2021/04/24 06:55:56;;;;;;;7.07;4.15;;;12.40;84.20;;;11.77;57.71;101492.56;4074746;29;20604;-75
2021/04/24 06:57:57;;;;;;;8.07;4.68;;;12.40;83.90;;;11.77;54.55;101491.75;4074632;29;20028;-75
2021/04/24 06:59:58;;;;;;;8.18;4.13;;;12.40;80.20;;;11.89;54.95;101495.84;4072871;29;20032;-76
2021/04/24 07:01:58;;;;;;;8.23;4.03;;;12.60;81.00;;;11.92;54.40;101499.03;4074621;29;20028;-77
2021/04/24 07:03:59;;;;;;;8.25;4.30;;;12.60;80.70;;;12.06;56.36;101509.16;4074317;29;20024;-77
2021/04/24 07:06:00;;;;;;;10.45;4.70;;;12.70;83.00;;;12.09;52.31;101502.75;4072481;29;20055;-75
2021/04/24 07:08:01;;;;;;;6.72;3.75;;;12.80;78.30;;;12.31;51.14;101507.59;4087717;29;20116;-75
2021/04/24 07:10:08;;;;;;;6.38;4.70;;;13.00;77.20;;;12.27;51.83;101513.34;4089747;29;20043;-75
2021/04/24 07:12:09;;;;;;;6.88;4.53;;;13.20;76.90;;;12.51;51.93;101511.81;4090284;29;20023;-75
2021/04/24 07:14:11;;;;;;;7.18;4.38;;;13.30;77.30;;;12.52;51.07;101515.28;4089669;29;20027;-75
2021/04/24 07:16:12;;;;;;;5.45;4.05;;;13.40;76.40;;;12.69;52.44;101506.53;4090371;29;20553;-76
2021/04/24 07:18:13;;;;;;;7.18;4.13;;;13.60;77.80;;;12.72;50.90;101499.09;4090049;29;20059;-76
2021/04/24 07:20:14;;;;;;;9.40;4.47;;;13.80;75.80;;;12.97;50.66;101504.59;4090309;29;20034;-76
2021/04/24 07:22:15;;;;;;;7.47;3.97;;;13.90;75.90;;;13.03;50.96;101501.34;4090601;29;20403;-75
2021/04/24 07:24:16;;;;;;;7.55;4.25;;;14.00;75.80;;;12.99;52.64;101500.81;4090084;29;20070;-75
2021/04/24 07:26:17;;;;;;;5.35;4.10;;;14.10;77.50;;;13.11;49.97;101496.97;4090313;29;20043;-75
2021/04/24 07:28:18;;;;;;;7.75;4.35;;;14.10;75.20;;;13.18;50.18;101513.09;4090277;29;20055;-75
2021/04/24 07:30:20;;;;;;;8.50;4.47;;;14.20;74.90;;;13.19;52.04;101507.66;4088952;29;20066;-75
2021/04/24 07:32:22;;;;;;;5.32;4.05;;;14.20;77.30;;;12.86;50.48;101511.00;4090255;29;20027;-76
2021/04/24 07:34:23;;;;;;;10.45;5.00;;;14.20;74.80;;;12.86;49.95;101492.44;4090504;29;20035;-75
2021/04/24 07:36:23;;;;;;;9.95;4.05;;;14.10;74.30;;;12.94;52.52;101499.63;4087874;29;20032;-75
2021/04/24 07:38:24;;;;;;;7.13;3.83;;;14.20;77.00;;;13.02;51.78;101502.34;4104562;29;20491;-76
2021/04/24 07:40:25;;;;;;;4.93;3.72;;;14.10;76.20;;;13.29;51.07;101505.72;4090191;29;20114;-76
2021/04/24 07:42:26;;;;;;;7.32;4.45;;;14.20;76.20;;;13.41;51.03;101508.94;4087651;29;20083;-75
2021/04/24 07:44:27;;;;;;;7.80;4.00;;;14.30;76.40;;;13.36;51.82;101508.59;4081357;29;20062;-75
2021/04/24 07:46:28;;;;;;;5.13;3.55;;;14.30;77.10;;;13.27;52.16;101504.22;4084800;29;20035;-75
2021/04/24 07:48:29;;;;;;;7.00;4.32;;;14.30;76.90;;;13.54;51.92;101501.44;4090023;29;20034;-75
2021/04/24 07:50:30;;;;;;;8.10;4.07;;;14.40;77.20;;;13.64;50.47;101502.16;4082003;29;20480;-75
2021/04/24 07:52:31;;;;;;;6.60;4.38;;;14.60;76.40;;;13.61;51.02;101499.81;4093499;29;20027;-75
2021/04/24 07:54:36;;;;;;;6.18;3.88;;;14.60;75.90;;;13.72;52.02;101496.06;4089980;29;20579;-75
2021/04/24 07:56:37;;;;;;;6.95;4.47;;;14.80;77.90;;;13.97;52.25;101499.66;4089987;29;20111;-75
2021/04/24 07:58:38;;;;;;;5.45;3.75;;;14.80;78.30;;;13.95;50.85;101505.09;4089873;29;20051;-75
2021/04/24 08:00:39;;;;;;;6.95;4.30;;;15.00;76.00;;;13.89;50.73;101500.44;4089830;29;20031;-75
2021/04/24 08:02:40;;;;;;;7.50;4.53;;;15.00;76.00;;;13.92;50.63;101502.78;4104657;29;20058;-75
2021/04/24 08:04:42;;;;;;;5.40;3.72;;;15.10;75.20;;;14.24;52.02;101500.28;4104491;29;20031;-75
2021/04/24 08:06:43;;;;;;;4.90;3.47;;;15.20;77.80;;;14.25;49.66;101511.69;4089813;29;20040;-75
2021/04/24 08:08:44;;;;;;;6.55;3.70;;;15.30;75.00;;;14.35;50.50;101509.78;4089438;29;20082;-75
2021/04/24 08:10:45;;;;;;;4.88;3.42;;;15.40;75.50;;;14.56;51.02;101504.00;4089690;29;20028;-75
2021/04/24 08:12:46;;;;;;;7.97;3.70;;;15.50;77.00;;;14.65;50.69;101503.03;4089539;29;20443;-76
2021/04/24 08:14:47;;;;;;;7.35;3.40;;;15.70;76.20;;;14.68;49.71;101500.06;4081578;29;20466;-79
2021/04/24 08:16:48;;;;;;;5.03;3.25;;;15.70;74.40;;;14.38;49.79;101483.75;4089255;29;20070;-77
2021/04/24 08:18:49;;;;;;;8.82;3.70;;;15.70;74.20;;;14.47;51.40;101487.25;4089290;29;20023;-75
2021/04/24 08:20:50;;;;;;;7.13;3.40;;;15.80;76.20;;;14.32;49.71;101489.69;4089011;29;20032;-82
2021/04/24 08:22:51;;;;;;;9.35;3.80;;;15.80;73.80;;;14.67;49.82;101501.03;4088875;29;20059;-81
2021/04/24 08:24:53;;;;;;;9.00;3.90;;;15.90;74.90;;;14.79;47.33;101492.59;4089104;29;20483;-81
2021/04/24 08:26:54;;;;;;;6.20;3.83;;;15.90;71.90;;;14.70;48.09;101488.25;4103780;29;20055;-77